sensor_id;sensor_type;location;lat;lon;timestamp;temperature;humidity
43043;DHT22;28667;50.758;6.096;2023-03-24T00:01:16;11.60;99.90
43043;DHT22;28667;50.758;6.096;2023-03-24T00:03:42;11.60;99.90
43043;DHT22;28667;50.758;6.096;2023-03-24T00:06:13;11.60;99.90
43043;DHT22;28667;50.758;6.096;2023-03-24T00:08:39;11.60;99.90
43043;DHT22;28667;50.758;6.096;2023-03-24T00:11:08;11.70;99.90
43043;DHT22;28667;50.758;6.096;2023-03-24T00:13:35;11.60;99.90
43043;DHT22;28667;50.758;6.096;2023-03-24T00:16:10;11.70;99.90
43043;DHT22;28667;50.758;6.096;2023-03-24T00:18:37;11.70;99.90
43043;DHT22;28667;50.758;6.096;2023-03-24T00:21:04;11.60;99.90
43043;DHT22;28667;50.758;6.096;2023-03-24T00:23:31;11.70;99.90
43043;DHT22;28667;50.758;6.096;2023-03-24T00:26:06;11.70;99.90
43043;DHT22;28667;50.758;6.096;2023-03-24T00:28:35;11.70;99.90
43043;DHT22;28667;50.758;6.096;2023-03-24T00:31:03;11.80;99.90
43043;DHT22;28667;50.758;6.096;2023-03-24T00:33:30;11.70;99.90
43043;DHT22;28667;50.758;6.096;2023-03-24T00:35:58;11.80;99.90
43043;DHT22;28667;50.758;6.096;2023-03-24T00:38:24;11.80;99.90
43043;DHT22;28667;50.758;6.096;2023-03-24T00:40:51;11.80;99.90
43043;DHT22;28667;50.758;6.096;2023-03-24T00:43:17;11.80;99.90
43043;DHT22;28667;50.758;6.096;2023-03-24T00:45:42;11.80;99.90
43043;DHT22;28667;50.758;6.096;2023-03-24T00:48:14;11.90;99.90
43043;DHT22;28667;50.758;6.096;2023-03-24T00:50:49;11.90;99.90
43043;DHT22;28667;50.758;6.096;2023-03-24T00:53:17;11.90;99.90
43043;DHT22;28667;50.758;6.096;2023-03-24T00:55:45;12.00;99.90
43043;DHT22;28667;50.758;6.096;2023-03-24T00:58:16;12.00;99.90
43043;DHT22;28667;50.758;6.096;2023-03-24T01:00:50;12.00;99.90
43043;DHT22;28667;50.758;6.096;2023-03-24T01:03:18;11.90;99.90
43043;DHT22;28667;50.758;6.096;2023-03-24T01:05:48;12.00;99.90
43043;DHT22;28667;50.758;6.096;2023-03-24T01:08:15;12.00;99.90
43043;DHT22;28667;50.758;6.096;2023-03-24T01:10:46;12.00;99.90
43043;DHT22;28667;50.758;6.096;2023-03-24T01:13:27;11.90;99.90
43043;DHT22;28667;50.758;6.096;2023-03-24T01:15:53;12.00;99.90
43043;DHT22;28667;50.758;6.096;2023-03-24T01:18:20;12.00;99.90
43043;DHT22;28667;50.758;6.096;2023-03-24T01:20:50;12.00;99.90
43043;DHT22;28667;50.758;6.096;2023-03-24T01:23:20;12.00;99.90
43043;DHT22;28667;50.758;6.096;2023-03-24T01:25:47;12.00;99.90
43043;DHT22;28667;50.758;6.096;2023-03-24T01:28:18;12.10;99.90
43043;DHT22;28667;50.758;6.096;2023-03-24T01:30:46;12.00;99.90
43043;DHT22;28667;50.758;6.096;2023-03-24T01:33:12;12.00;99.90
43043;DHT22;28667;50.758;6.096;2023-03-24T01:35:38;12.00;99.90
43043;DHT22;28667;50.758;6.096;2023-03-24T01:38:06;12.00;99.90
43043;DHT22;28667;50.758;6.096;2023-03-24T01:40:34;12.00;99.90
43043;DHT22;28667;50.758;6.096;2023-03-24T01:43:00;12.00;99.90
43043;DHT22;28667;50.758;6.096;2023-03-24T01:48:08;12.00;99.90
43043;DHT22;28667;50.758;6.096;2023-03-24T01:50:35;12.00;99.90
43043;DHT22;28667;50.758;6.096;2023-03-24T01:53:02;12.10;99.90
43043;DHT22;28667;50.758;6.096;2023-03-24T01:55:29;12.10;99.90
43043;DHT22;28667;50.758;6.096;2023-03-24T01:57:57;12.20;99.90
43043;DHT22;28667;50.758;6.096;2023-03-24T02:00:30;12.20;99.90
43043;DHT22;28667;50.758;6.096;2023-03-24T02:03:19;12.20;99.90
43043;DHT22;28667;50.758;6.096;2023-03-24T02:05:52;12.30;99.90
43043;DHT22;28667;50.758;6.096;2023-03-24T02:09:07;12.30;99.90
43043;DHT22;28667;50.758;6.096;2023-03-24T02:11:14;12.30;99.90
43043;DHT22;28667;50.758;6.096;2023-03-24T02:13:54;12.40;99.90
43043;DHT22;28667;50.758;6.096;2023-03-24T02:40:36;12.70;99.90
43043;DHT22;28667;50.758;6.096;2023-03-24T02:43:42;12.80;99.90
43043;DHT22;28667;50.758;6.096;2023-03-24T02:46:53;12.80;99.90
43043;DHT22;28667;50.758;6.096;2023-03-24T02:54:55;12.80;99.90
43043;DHT22;28667;50.758;6.096;2023-03-24T02:57:31;12.70;99.90
43043;DHT22;28667;50.758;6.096;2023-03-24T03:00:12;12.70;99.90
43043;DHT22;28667;50.758;6.096;2023-03-24T03:03:08;12.70;99.90
43043;DHT22;28667;50.758;6.096;2023-03-24T03:06:01;12.70;99.90
43043;DHT22;28667;50.758;6.096;2023-03-24T03:08:29;12.60;99.90
43043;DHT22;28667;50.758;6.096;2023-03-24T03:11:00;12.70;99.90
43043;DHT22;28667;50.758;6.096;2023-03-24T03:13:39;12.70;99.90
43043;DHT22;28667;50.758;6.096;2023-03-24T03:16:24;12.70;99.90
43043;DHT22;28667;50.758;6.096;2023-03-24T03:19:00;12.70;99.90
43043;DHT22;28667;50.758;6.096;2023-03-24T03:21:31;12.70;99.90
43043;DHT22;28667;50.758;6.096;2023-03-24T03:24:24;12.70;99.90
43043;DHT22;28667;50.758;6.096;2023-03-24T03:27:16;12.70;99.90
43043;DHT22;28667;50.758;6.096;2023-03-24T03:29:48;12.70;99.90
43043;DHT22;28667;50.758;6.096;2023-03-24T03:32:22;12.70;99.90
43043;DHT22;28667;50.758;6.096;2023-03-24T03:35:15;12.80;99.90
43043;DHT22;28667;50.758;6.096;2023-03-24T03:40:52;12.70;99.90
43043;DHT22;28667;50.758;6.096;2023-03-24T03:43:23;12.80;99.90
43043;DHT22;28667;50.758;6.096;2023-03-24T03:45:50;12.80;99.90
43043;DHT22;28667;50.758;6.096;2023-03-24T03:48:20;12.80;99.90
43043;DHT22;28667;50.758;6.096;2023-03-24T03:50:46;12.80;99.90
43043;DHT22;28667;50.758;6.096;2023-03-24T03:53:14;12.70;99.90
43043;DHT22;28667;50.758;6.096;2023-03-24T03:55:42;12.70;99.90
43043;DHT22;28667;50.758;6.096;2023-03-24T03:58:09;12.70;99.90
43043;DHT22;28667;50.758;6.096;2023-03-24T04:00:51;12.60;99.90
43043;DHT22;28667;50.758;6.096;2023-03-24T04:04:01;12.60;99.90
43043;DHT22;28667;50.758;6.096;2023-03-24T04:09:39;12.40;99.90
43043;DHT22;28667;50.758;6.096;2023-03-24T04:15:34;12.40;99.90
43043;DHT22;28667;50.758;6.096;2023-03-24T04:21:06;12.10;99.90
43043;DHT22;28667;50.758;6.096;2023-03-24T04:23:42;11.90;99.90
43043;DHT22;28667;50.758;6.096;2023-03-24T04:31:34;11.70;99.90
43043;DHT22;28667;50.758;6.096;2023-03-24T04:34:29;11.60;99.90
43043;DHT22;28667;50.758;6.096;2023-03-24T04:37:12;11.50;99.90
43043;DHT22;28667;50.758;6.096;2023-03-24T04:40:02;11.50;99.90
43043;DHT22;28667;50.758;6.096;2023-03-24T04:42:51;11.40;99.90
43043;DHT22;28667;50.758;6.096;2023-03-24T04:45:20;11.30;99.90
43043;DHT22;28667;50.758;6.096;2023-03-24T04:48:17;11.20;99.90
43043;DHT22;28667;50.758;6.096;2023-03-24T04:51:08;11.10;99.90
43043;DHT22;28667;50.758;6.096;2023-03-24T04:53:54;11.10;99.90
43043;DHT22;28667;50.758;6.096;2023-03-24T04:56:43;11.10;99.90
43043;DHT22;28667;50.758;6.096;2023-03-24T04:59:23;11.10;99.90
43043;DHT22;28667;50.758;6.096;2023-03-24T05:01:49;11.10;99.90
43043;DHT22;28667;50.758;6.096;2023-03-24T05:04:33;11.10;99.90
43043;DHT22;28667;50.758;6.096;2023-03-24T05:07:21;10.90;99.90
43043;DHT22;28667;50.758;6.096;2023-03-24T05:09:50;10.90;99.90
43043;DHT22;28667;50.758;6.096;2023-03-24T05:12:16;10.80;99.90
43043;DHT22;28667;50.758;6.096;2023-03-24T05:15:02;10.80;99.90
43043;DHT22;28667;50.758;6.096;2023-03-24T05:17:29;10.60;99.90
43043;DHT22;28667;50.758;6.096;2023-03-24T05:19:56;10.40;99.90
43043;DHT22;28667;50.758;6.096;2023-03-24T05:22:21;10.30;99.90
43043;DHT22;28667;50.758;6.096;2023-03-24T05:24:47;10.20;99.90
43043;DHT22;28667;50.758;6.096;2023-03-24T05:27:13;10.10;99.90
43043;DHT22;28667;50.758;6.096;2023-03-24T05:29:39;10.00;99.90
43043;DHT22;28667;50.758;6.096;2023-03-24T05:32:06;9.90;99.90
43043;DHT22;28667;50.758;6.096;2023-03-24T05:34:32;9.80;99.90
43043;DHT22;28667;50.758;6.096;2023-03-24T05:37:24;9.70;99.90
43043;DHT22;28667;50.758;6.096;2023-03-24T05:39:50;9.60;99.90
43043;DHT22;28667;50.758;6.096;2023-03-24T05:42:32;9.60;99.90
43043;DHT22;28667;50.758;6.096;2023-03-24T05:45:00;9.60;99.90
43043;DHT22;28667;50.758;6.096;2023-03-24T05:47:26;9.50;99.90
43043;DHT22;28667;50.758;6.096;2023-03-24T05:49:53;9.50;99.90
43043;DHT22;28667;50.758;6.096;2023-03-24T05:52:19;9.40;99.90
43043;DHT22;28667;50.758;6.096;2023-03-24T05:54:48;9.30;99.90
43043;DHT22;28667;50.758;6.096;2023-03-24T05:57:24;9.40;99.90
43043;DHT22;28667;50.758;6.096;2023-03-24T06:00:09;9.30;99.90
43043;DHT22;28667;50.758;6.096;2023-03-24T06:02:46;9.30;99.90
43043;DHT22;28667;50.758;6.096;2023-03-24T06:05:40;9.40;99.90
43043;DHT22;28667;50.758;6.096;2023-03-24T06:08:07;9.30;99.90
43043;DHT22;28667;50.758;6.096;2023-03-24T06:10:35;9.30;99.90
43043;DHT22;28667;50.758;6.096;2023-03-24T06:13:02;9.30;99.90
43043;DHT22;28667;50.758;6.096;2023-03-24T06:15:28;9.30;99.90
43043;DHT22;28667;50.758;6.096;2023-03-24T06:18:05;9.30;99.90
43043;DHT22;28667;50.758;6.096;2023-03-24T06:20:33;9.20;99.90
43043;DHT22;28667;50.758;6.096;2023-03-24T06:23:03;9.30;99.90
43043;DHT22;28667;50.758;6.096;2023-03-24T06:25:39;9.40;99.90
43043;DHT22;28667;50.758;6.096;2023-03-24T06:28:21;9.40;99.90
43043;DHT22;28667;50.758;6.096;2023-03-24T06:30:48;9.40;99.90
43043;DHT22;28667;50.758;6.096;2023-03-24T06:33:21;9.40;99.90
43043;DHT22;28667;50.758;6.096;2023-03-24T06:35:52;9.40;99.90
43043;DHT22;28667;50.758;6.096;2023-03-24T06:38:18;9.40;99.90
43043;DHT22;28667;50.758;6.096;2023-03-24T06:40:44;9.40;99.90
43043;DHT22;28667;50.758;6.096;2023-03-24T06:43:10;9.30;99.90
43043;DHT22;28667;50.758;6.096;2023-03-24T06:45:38;9.40;99.90
43043;DHT22;28667;50.758;6.096;2023-03-24T06:48:06;9.40;99.90
43043;DHT22;28667;50.758;6.096;2023-03-24T06:50:33;9.50;99.90
43043;DHT22;28667;50.758;6.096;2023-03-24T06:53:04;9.50;99.90
43043;DHT22;28667;50.758;6.096;2023-03-24T06:55:32;9.50;99.90
43043;DHT22;28667;50.758;6.096;2023-03-24T06:57:58;9.50;99.90
43043;DHT22;28667;50.758;6.096;2023-03-24T07:00:32;9.50;99.90
43043;DHT22;28667;50.758;6.096;2023-03-24T07:03:17;9.50;99.90
43043;DHT22;28667;50.758;6.096;2023-03-24T07:06:00;9.60;99.90
43043;DHT22;28667;50.758;6.096;2023-03-24T07:08:26;9.60;99.90
43043;DHT22;28667;50.758;6.096;2023-03-24T07:10:57;9.60;99.90
43043;DHT22;28667;50.758;6.096;2023-03-24T07:13:23;9.70;99.90
43043;DHT22;28667;50.758;6.096;2023-03-24T07:15:52;9.60;99.90
43043;DHT22;28667;50.758;6.096;2023-03-24T07:18:18;9.60;99.90
43043;DHT22;28667;50.758;6.096;2023-03-24T07:20:48;9.60;99.90
43043;DHT22;28667;50.758;6.096;2023-03-24T07:23:18;9.60;99.90
43043;DHT22;28667;50.758;6.096;2023-03-24T07:25:55;9.60;99.90
43043;DHT22;28667;50.758;6.096;2023-03-24T07:28:39;9.60;99.90
43043;DHT22;28667;50.758;6.096;2023-03-24T07:31:05;9.60;99.90
43043;DHT22;28667;50.758;6.096;2023-03-24T07:33:35;9.60;99.90
43043;DHT22;28667;50.758;6.096;2023-03-24T07:36:03;9.60;99.90
43043;DHT22;28667;50.758;6.096;2023-03-24T07:38:29;9.60;99.90
43043;DHT22;28667;50.758;6.096;2023-03-24T07:41:00;9.60;99.90
43043;DHT22;28667;50.758;6.096;2023-03-24T07:43:29;9.70;99.90
43043;DHT22;28667;50.758;6.096;2023-03-24T07:46:03;9.80;99.90
43043;DHT22;28667;50.758;6.096;2023-03-24T07:48:30;9.80;99.90
43043;DHT22;28667;50.758;6.096;2023-03-24T07:50:56;10.10;99.90
43043;DHT22;28667;50.758;6.096;2023-03-24T07:53:51;10.20;99.90
43043;DHT22;28667;50.758;6.096;2023-03-24T07:56:39;10.40;99.90
43043;DHT22;28667;50.758;6.096;2023-03-24T07:59:07;10.60;99.90
43043;DHT22;28667;50.758;6.096;2023-03-24T08:01:56;10.70;99.90
43043;DHT22;28667;50.758;6.096;2023-03-24T08:04:33;10.90;99.90
43043;DHT22;28667;50.758;6.096;2023-03-24T08:07:19;10.90;99.90
43043;DHT22;28667;50.758;6.096;2023-03-24T08:09:45;10.90;99.90
43043;DHT22;28667;50.758;6.096;2023-03-24T08:12:11;10.90;99.90
43043;DHT22;28667;50.758;6.096;2023-03-24T08:14:36;10.80;99.90
43043;DHT22;28667;50.758;6.096;2023-03-24T08:17:02;10.90;99.90
43043;DHT22;28667;50.758;6.096;2023-03-24T08:19:28;10.90;99.90
43043;DHT22;28667;50.758;6.096;2023-03-24T08:21:54;10.90;99.90
43043;DHT22;28667;50.758;6.096;2023-03-24T08:24:20;10.90;99.90
43043;DHT22;28667;50.758;6.096;2023-03-24T08:26:46;10.90;99.90
43043;DHT22;28667;50.758;6.096;2023-03-24T08:29:12;10.90;99.90
43043;DHT22;28667;50.758;6.096;2023-03-24T08:31:38;10.90;99.90
43043;DHT22;28667;50.758;6.096;2023-03-24T08:34:04;10.80;99.90
43043;DHT22;28667;50.758;6.096;2023-03-24T08:36:36;10.80;99.90
43043;DHT22;28667;50.758;6.096;2023-03-24T08:39:02;10.90;99.90
43043;DHT22;28667;50.758;6.096;2023-03-24T08:41:31;10.80;99.90
43043;DHT22;28667;50.758;6.096;2023-03-24T08:44:01;10.90;99.90
43043;DHT22;28667;50.758;6.096;2023-03-24T08:46:31;10.90;99.90
43043;DHT22;28667;50.758;6.096;2023-03-24T08:48:58;11.00;99.90
43043;DHT22;28667;50.758;6.096;2023-03-24T08:51:24;10.90;99.90
43043;DHT22;28667;50.758;6.096;2023-03-24T08:53:50;10.90;99.90
43043;DHT22;28667;50.758;6.096;2023-03-24T08:56:18;10.90;99.90
43043;DHT22;28667;50.758;6.096;2023-03-24T08:58:44;11.00;99.90
43043;DHT22;28667;50.758;6.096;2023-03-24T09:01:13;11.10;99.90
43043;DHT22;28667;50.758;6.096;2023-03-24T09:03:39;11.10;99.90
43043;DHT22;28667;50.758;6.096;2023-03-24T09:06:06;11.30;99.90
43043;DHT22;28667;50.758;6.096;2023-03-24T09:08:32;11.30;99.90
43043;DHT22;28667;50.758;6.096;2023-03-24T09:10:58;11.50;99.90
43043;DHT22;28667;50.758;6.096;2023-03-24T09:13:24;11.50;99.90
43043;DHT22;28667;50.758;6.096;2023-03-24T09:15:53;11.60;99.90
43043;DHT22;28667;50.758;6.096;2023-03-24T09:18:20;11.80;99.90
43043;DHT22;28667;50.758;6.096;2023-03-24T09:20:46;11.80;99.90
43043;DHT22;28667;50.758;6.096;2023-03-24T09:23:13;11.80;99.90
43043;DHT22;28667;50.758;6.096;2023-03-24T09:25:39;11.80;99.90
43043;DHT22;28667;50.758;6.096;2023-03-24T09:28:05;11.90;99.90
43043;DHT22;28667;50.758;6.096;2023-03-24T09:30:33;11.90;99.90
43043;DHT22;28667;50.758;6.096;2023-03-24T09:32:59;11.90;99.90
43043;DHT22;28667;50.758;6.096;2023-03-24T09:35:26;11.80;99.90
43043;DHT22;28667;50.758;6.096;2023-03-24T09:37:52;11.80;99.90
43043;DHT22;28667;50.758;6.096;2023-03-24T09:40:21;11.80;99.90
43043;DHT22;28667;50.758;6.096;2023-03-24T09:42:53;11.80;99.90
43043;DHT22;28667;50.758;6.096;2023-03-24T09:45:21;12.00;99.90
43043;DHT22;28667;50.758;6.096;2023-03-24T09:47:52;12.20;99.90
43043;DHT22;28667;50.758;6.096;2023-03-24T09:50:28;12.30;99.90
43043;DHT22;28667;50.758;6.096;2023-03-24T09:53:08;12.40;99.90
43043;DHT22;28667;50.758;6.096;2023-03-24T09:55:36;12.50;99.90
43043;DHT22;28667;50.758;6.096;2023-03-24T09:58:05;12.40;99.90
43043;DHT22;28667;50.758;6.096;2023-03-24T10:00:33;12.50;99.90
43043;DHT22;28667;50.758;6.096;2023-03-24T10:03:21;12.50;99.90
43043;DHT22;28667;50.758;6.096;2023-03-24T10:08:42;12.40;99.90
43043;DHT22;28667;50.758;6.096;2023-03-24T10:11:24;12.40;99.90
43043;DHT22;28667;50.758;6.096;2023-03-24T10:17:02;12.50;99.90
43043;DHT22;28667;50.758;6.096;2023-03-24T10:24:55;12.50;99.90
43043;DHT22;28667;50.758;6.096;2023-03-24T10:27:27;12.50;99.90
43043;DHT22;28667;50.758;6.096;2023-03-24T10:29:59;12.60;99.90
43043;DHT22;28667;50.758;6.096;2023-03-24T10:32:28;12.70;99.90
43043;DHT22;28667;50.758;6.096;2023-03-24T10:34:59;12.80;99.90
43043;DHT22;28667;50.758;6.096;2023-03-24T10:37:32;12.90;99.90
43043;DHT22;28667;50.758;6.096;2023-03-24T10:39:59;13.00;99.90
43043;DHT22;28667;50.758;6.096;2023-03-24T10:42:29;13.10;99.90
43043;DHT22;28667;50.758;6.096;2023-03-24T10:44:56;13.20;99.90
43043;DHT22;28667;50.758;6.096;2023-03-24T10:47:28;13.10;99.90
43043;DHT22;28667;50.758;6.096;2023-03-24T10:50:06;13.10;99.90
43043;DHT22;28667;50.758;6.096;2023-03-24T10:52:41;13.00;99.90
43043;DHT22;28667;50.758;6.096;2023-03-24T10:55:12;12.90;99.90
43043;DHT22;28667;50.758;6.096;2023-03-24T10:57:42;12.80;99.90
43043;DHT22;28667;50.758;6.096;2023-03-24T11:00:22;12.70;99.90
43043;DHT22;28667;50.758;6.096;2023-03-24T11:03:00;12.70;99.90
43043;DHT22;28667;50.758;6.096;2023-03-24T11:05:31;12.60;99.90
43043;DHT22;28667;50.758;6.096;2023-03-24T11:10:42;12.90;99.90
43043;DHT22;28667;50.758;6.096;2023-03-24T11:18:22;13.60;99.90
43043;DHT22;28667;50.758;6.096;2023-03-24T11:20:54;13.80;99.90
43043;DHT22;28667;50.758;6.096;2023-03-24T11:23:33;14.00;99.90
43043;DHT22;28667;50.758;6.096;2023-03-24T11:26:15;14.00;99.90
43043;DHT22;28667;50.758;6.096;2023-03-24T11:31:25;14.10;99.90
43043;DHT22;28667;50.758;6.096;2023-03-24T11:34:17;14.10;99.90
43043;DHT22;28667;50.758;6.096;2023-03-24T11:36:55;14.20;99.90
43043;DHT22;28667;50.758;6.096;2023-03-24T11:39:26;14.20;99.90
43043;DHT22;28667;50.758;6.096;2023-03-24T11:47:11;14.50;99.90
43043;DHT22;28667;50.758;6.096;2023-03-24T11:49:47;14.60;99.90
43043;DHT22;28667;50.758;6.096;2023-03-24T11:52:26;14.70;99.90
43043;DHT22;28667;50.758;6.096;2023-03-24T11:54:53;14.80;99.90
43043;DHT22;28667;50.758;6.096;2023-03-24T12:00:46;15.20;99.60
43043;DHT22;28667;50.758;6.096;2023-03-24T12:06:22;15.30;98.60
43043;DHT22;28667;50.758;6.096;2023-03-24T12:08:55;15.30;98.00
43043;DHT22;28667;50.758;6.096;2023-03-24T12:12:00;15.20;97.60
43043;DHT22;28667;50.758;6.096;2023-03-24T12:17:22;15.00;97.90
43043;DHT22;28667;50.758;6.096;2023-03-24T12:20:11;15.00;97.90
43043;DHT22;28667;50.758;6.096;2023-03-24T12:23:24;15.10;97.30
43043;DHT22;28667;50.758;6.096;2023-03-24T12:37:00;14.60;98.30
43043;DHT22;28667;50.758;6.096;2023-03-24T12:39:33;14.60;98.50
43043;DHT22;28667;50.758;6.096;2023-03-24T12:42:12;14.60;98.40
43043;DHT22;28667;50.758;6.096;2023-03-24T12:55:22;14.60;98.30
43043;DHT22;28667;50.758;6.096;2023-03-24T12:58:56;14.60;98.10
43043;DHT22;28667;50.758;6.096;2023-03-24T13:01:32;14.60;98.40
43043;DHT22;28667;50.758;6.096;2023-03-24T13:04:28;14.50;99.40
43043;DHT22;28667;50.758;6.096;2023-03-24T13:06:56;14.50;99.90
43043;DHT22;28667;50.758;6.096;2023-03-24T13:09:44;14.60;99.40
43043;DHT22;28667;50.758;6.096;2023-03-24T13:12:16;14.80;99.00
43043;DHT22;28667;50.758;6.096;2023-03-24T13:17:20;14.70;98.80
43043;DHT22;28667;50.758;6.096;2023-03-24T13:19:48;14.50;99.30
43043;DHT22;28667;50.758;6.096;2023-03-24T13:22:17;14.20;99.90
43043;DHT22;28667;50.758;6.096;2023-03-24T13:24:45;14.10;99.90
43043;DHT22;28667;50.758;6.096;2023-03-24T13:27:22;13.80;99.90
43043;DHT22;28667;50.758;6.096;2023-03-24T13:32:39;13.20;99.90
43043;DHT22;28667;50.758;6.096;2023-03-24T13:38:20;12.90;99.90
43043;DHT22;28667;50.758;6.096;2023-03-24T13:40:52;12.70;99.90
43043;DHT22;28667;50.758;6.096;2023-03-24T13:43:20;12.60;99.90
43043;DHT22;28667;50.758;6.096;2023-03-24T13:46:04;12.50;99.90
43043;DHT22;28667;50.758;6.096;2023-03-24T13:48:36;12.40;99.90
43043;DHT22;28667;50.758;6.096;2023-03-24T13:53:58;12.30;99.90
43043;DHT22;28667;50.758;6.096;2023-03-24T13:56:34;12.10;99.90
43043;DHT22;28667;50.758;6.096;2023-03-24T14:09:25;12.40;99.90
43043;DHT22;28667;50.758;6.096;2023-03-24T14:14:25;12.50;99.90
43043;DHT22;28667;50.758;6.096;2023-03-24T14:22:33;12.90;99.90
43043;DHT22;28667;50.758;6.096;2023-03-24T14:27:41;13.20;99.90
43043;DHT22;28667;50.758;6.096;2023-03-24T14:32:44;13.50;99.90
43043;DHT22;28667;50.758;6.096;2023-03-24T14:35:21;13.70;99.90
43043;DHT22;28667;50.758;6.096;2023-03-24T14:37:54;13.90;99.90
43043;DHT22;28667;50.758;6.096;2023-03-24T14:43:03;14.00;99.90
43043;DHT22;28667;50.758;6.096;2023-03-24T14:47:59;14.10;99.90
43043;DHT22;28667;50.758;6.096;2023-03-24T14:50:26;14.20;99.90
43043;DHT22;28667;50.758;6.096;2023-03-24T14:53:02;14.30;99.90
43043;DHT22;28667;50.758;6.096;2023-03-24T14:55:29;14.60;99.90
43043;DHT22;28667;50.758;6.096;2023-03-24T14:58:20;14.70;99.90
43043;DHT22;28667;50.758;6.096;2023-03-24T15:00:50;14.70;99.90
43043;DHT22;28667;50.758;6.096;2023-03-24T15:03:29;14.60;99.90
43043;DHT22;28667;50.758;6.096;2023-03-24T15:06:23;14.50;99.90
43043;DHT22;28667;50.758;6.096;2023-03-24T15:08:50;14.40;99.90
43043;DHT22;28667;50.758;6.096;2023-03-24T15:11:21;14.40;99.90
43043;DHT22;28667;50.758;6.096;2023-03-24T15:13:49;14.20;99.90
43043;DHT22;28667;50.758;6.096;2023-03-24T15:16:19;14.00;99.90
43043;DHT22;28667;50.758;6.096;2023-03-24T15:18:51;13.90;99.90
43043;DHT22;28667;50.758;6.096;2023-03-24T15:21:27;13.80;99.90
43043;DHT22;28667;50.758;6.096;2023-03-24T15:23:54;13.50;99.90
43043;DHT22;28667;50.758;6.096;2023-03-24T15:26:22;12.90;99.90
43043;DHT22;28667;50.758;6.096;2023-03-24T15:29:05;12.80;99.90
43043;DHT22;28667;50.758;6.096;2023-03-24T15:31:31;12.70;99.90
43043;DHT22;28667;50.758;6.096;2023-03-24T15:34:26;12.70;99.90
43043;DHT22;28667;50.758;6.096;2023-03-24T15:36:57;12.70;99.90
43043;DHT22;28667;50.758;6.096;2023-03-24T15:39:28;12.60;99.90
43043;DHT22;28667;50.758;6.096;2023-03-24T15:41:56;12.50;99.90
43043;DHT22;28667;50.758;6.096;2023-03-24T15:44:27;12.30;99.90
43043;DHT22;28667;50.758;6.096;2023-03-24T15:46:57;12.20;99.90
43043;DHT22;28667;50.758;6.096;2023-03-24T15:49:31;12.10;99.90
43043;DHT22;28667;50.758;6.096;2023-03-24T15:52:03;12.10;99.90
43043;DHT22;28667;50.758;6.096;2023-03-24T15:54:47;12.00;99.90
43043;DHT22;28667;50.758;6.096;2023-03-24T15:57:19;11.80;99.90
43043;DHT22;28667;50.758;6.096;2023-03-24T16:02:35;11.70;99.90
43043;DHT22;28667;50.758;6.096;2023-03-24T16:05:12;11.70;99.90
43043;DHT22;28667;50.758;6.096;2023-03-24T16:07:40;11.70;99.90
43043;DHT22;28667;50.758;6.096;2023-03-24T16:10:18;11.60;99.90
43043;DHT22;28667;50.758;6.096;2023-03-24T16:12:50;11.60;99.90
43043;DHT22;28667;50.758;6.096;2023-03-24T16:15:16;11.40;99.90
43043;DHT22;28667;50.758;6.096;2023-03-24T16:17:42;11.30;99.90
43043;DHT22;28667;50.758;6.096;2023-03-24T16:20:18;11.30;99.90
43043;DHT22;28667;50.758;6.096;2023-03-24T16:22:45;11.40;99.90
43043;DHT22;28667;50.758;6.096;2023-03-24T16:25:12;11.50;99.90
43043;DHT22;28667;50.758;6.096;2023-03-24T16:27:39;11.50;99.90
43043;DHT22;28667;50.758;6.096;2023-03-24T16:30:20;11.60;99.90
43043;DHT22;28667;50.758;6.096;2023-03-24T16:32:49;11.70;99.90
43043;DHT22;28667;50.758;6.096;2023-03-24T16:35:15;11.80;99.90
43043;DHT22;28667;50.758;6.096;2023-03-24T16:37:41;11.90;99.90
43043;DHT22;28667;50.758;6.096;2023-03-24T16:40:29;12.00;99.90
43043;DHT22;28667;50.758;6.096;2023-03-24T16:42:56;12.10;99.90
43043;DHT22;28667;50.758;6.096;2023-03-24T16:45:23;12.10;99.90
43043;DHT22;28667;50.758;6.096;2023-03-24T16:47:49;12.10;99.90
43043;DHT22;28667;50.758;6.096;2023-03-24T16:50:31;12.00;99.90
43043;DHT22;28667;50.758;6.096;2023-03-24T16:52:57;12.00;99.90
43043;DHT22;28667;50.758;6.096;2023-03-24T16:55:23;12.10;99.90
43043;DHT22;28667;50.758;6.096;2023-03-24T16:57:49;12.10;99.90
43043;DHT22;28667;50.758;6.096;2023-03-24T17:00:15;12.10;99.90
43043;DHT22;28667;50.758;6.096;2023-03-24T17:02:41;12.10;99.90
43043;DHT22;28667;50.758;6.096;2023-03-24T17:05:28;12.00;99.90
43043;DHT22;28667;50.758;6.096;2023-03-24T17:07:55;12.00;99.90
43043;DHT22;28667;50.758;6.096;2023-03-24T17:10:22;11.90;99.90
43043;DHT22;28667;50.758;6.096;2023-03-24T17:12:49;11.80;99.90
43043;DHT22;28667;50.758;6.096;2023-03-24T17:15:27;11.70;99.90
43043;DHT22;28667;50.758;6.096;2023-03-24T17:17:54;11.50;99.90
43043;DHT22;28667;50.758;6.096;2023-03-24T17:20:21;11.30;99.90
43043;DHT22;28667;50.758;6.096;2023-03-24T17:22:50;11.10;99.90
43043;DHT22;28667;50.758;6.096;2023-03-24T17:25:18;10.90;99.90
43043;DHT22;28667;50.758;6.096;2023-03-24T17:27:51;10.80;99.90
43043;DHT22;28667;50.758;6.096;2023-03-24T17:30:18;10.60;99.90
43043;DHT22;28667;50.758;6.096;2023-03-24T17:32:45;10.50;99.90
43043;DHT22;28667;50.758;6.096;2023-03-24T17:35:14;10.30;99.90
43043;DHT22;28667;50.758;6.096;2023-03-24T17:37:40;10.20;99.90
43043;DHT22;28667;50.758;6.096;2023-03-24T17:40:07;10.10;99.90
43043;DHT22;28667;50.758;6.096;2023-03-24T17:42:36;10.00;99.90
43043;DHT22;28667;50.758;6.096;2023-03-24T17:45:03;9.90;99.90
43043;DHT22;28667;50.758;6.096;2023-03-24T17:47:30;9.90;99.90
43043;DHT22;28667;50.758;6.096;2023-03-24T17:49:55;9.80;99.90
43043;DHT22;28667;50.758;6.096;2023-03-24T17:52:21;9.70;99.90
43043;DHT22;28667;50.758;6.096;2023-03-24T17:54:47;9.70;99.90
43043;DHT22;28667;50.758;6.096;2023-03-24T17:57:13;9.70;99.90
43043;DHT22;28667;50.758;6.096;2023-03-24T17:59:39;9.70;99.90
43043;DHT22;28667;50.758;6.096;2023-03-24T18:02:06;9.70;99.90
43043;DHT22;28667;50.758;6.096;2023-03-24T18:04:32;9.80;99.90
43043;DHT22;28667;50.758;6.096;2023-03-24T18:06:58;9.80;99.90
43043;DHT22;28667;50.758;6.096;2023-03-24T18:09:25;9.80;99.90
43043;DHT22;28667;50.758;6.096;2023-03-24T18:11:52;9.90;99.90
43043;DHT22;28667;50.758;6.096;2023-03-24T18:14:18;9.90;99.90
43043;DHT22;28667;50.758;6.096;2023-03-24T18:16:43;9.90;99.90
43043;DHT22;28667;50.758;6.096;2023-03-24T18:19:09;9.90;99.90
43043;DHT22;28667;50.758;6.096;2023-03-24T18:21:35;9.80;99.90
43043;DHT22;28667;50.758;6.096;2023-03-24T18:24:02;9.90;99.90
43043;DHT22;28667;50.758;6.096;2023-03-24T18:26:29;9.80;99.90
43043;DHT22;28667;50.758;6.096;2023-03-24T18:28:55;9.80;99.90
43043;DHT22;28667;50.758;6.096;2023-03-24T18:31:21;9.80;99.90
43043;DHT22;28667;50.758;6.096;2023-03-24T18:33:48;9.80;99.90
43043;DHT22;28667;50.758;6.096;2023-03-24T18:36:16;9.80;99.90
43043;DHT22;28667;50.758;6.096;2023-03-24T18:38:46;9.90;99.90